sensor_id;sensor_type;location;lat;lon;timestamp;pressure;altitude;pressure_sealevel;temperature;humidity
22018;BME280;11173;51.050;7.108;2022-11-20T00:06:31;99088.19;;;2.31;60.03
22018;BME280;11173;51.050;7.108;2022-11-20T00:16:32;99071.22;;;2.26;59.76
22018;BME280;11173;51.050;7.108;2022-11-20T00:26:32;99071.22;;;2.26;60.66
22018;BME280;11173;51.050;7.108;2022-11-20T00:36:33;99075.50;;;2.23;60.51
22018;BME280;11173;51.050;7.108;2022-11-20T00:46:34;99075.50;;;2.19;60.46
22018;BME280;11173;51.050;7.108;2022-11-20T00:56:34;99071.59;;;2.24;61.36
22018;BME280;11173;51.050;7.108;2022-11-20T01:06:35;99068.91;;;2.28;61.20
22018;BME280;11173;51.050;7.108;2022-11-20T01:16:37;99066.19;;;2.31;61.09
22018;BME280;11173;51.050;7.108;2022-11-20T01:26:39;99055.56;;;2.30;60.25
22018;BME280;11173;51.050;7.108;2022-11-20T01:36:40;99057.53;;;2.33;61.56
22018;BME280;11173;51.050;7.108;2022-11-20T01:46:42;99051.00;;;2.48;62.44
22018;BME280;11173;51.050;7.108;2022-11-20T01:56:51;99045.28;;;2.68;62.35
22018;BME280;11173;51.050;7.108;2022-11-20T02:06:59;99056.75;;;2.81;62.26
22018;BME280;11173;51.050;7.108;2022-11-20T02:16:59;99038.69;;;2.87;62.07
22018;BME280;11173;51.050;7.108;2022-11-20T02:27:04;99040.72;;;2.93;62.13
22018;BME280;11173;51.050;7.108;2022-11-20T02:37:06;99034.00;;;2.91;60.96
22018;BME280;11173;51.050;7.108;2022-11-20T02:47:07;99012.63;;;2.66;59.47
22018;BME280;11173;51.050;7.108;2022-11-20T02:57:07;98997.91;;;2.41;60.20
22018;BME280;11173;51.050;7.108;2022-11-20T03:07:08;98995.50;;;2.32;60.83
22018;BME280;11173;51.050;7.108;2022-11-20T03:17:08;98986.41;;;2.24;60.76
22018;BME280;11173;51.050;7.108;2022-11-20T03:27:09;98984.41;;;2.21;61.54
22018;BME280;11173;51.050;7.108;2022-11-20T03:37:09;98984.06;;;2.26;62.07
22018;BME280;11173;51.050;7.108;2022-11-20T03:47:10;99004.09;;;2.27;62.25
22018;BME280;11173;51.050;7.108;2022-11-20T03:57:10;98997.88;;;2.33;62.67
22018;BME280;11173;51.050;7.108;2022-11-20T04:07:10;98989.34;;;2.46;62.63
22018;BME280;11173;51.050;7.108;2022-11-20T04:17:10;98985.44;;;2.50;62.64
22018;BME280;11173;51.050;7.108;2022-11-20T04:27:11;98979.59;;;2.55;62.42
22018;BME280;11173;51.050;7.108;2022-11-20T04:37:11;98977.59;;;2.52;62.28
22018;BME280;11173;51.050;7.108;2022-11-20T04:47:11;98985.41;;;2.47;62.44
22018;BME280;11173;51.050;7.108;2022-11-20T04:57:12;98993.22;;;2.41;62.49
22018;BME280;11173;51.050;7.108;2022-11-20T05:07:12;98996.78;;;2.45;62.59
22018;BME280;11173;51.050;7.108;2022-11-20T05:17:13;98993.63;;;2.43;62.68
22018;BME280;11173;51.050;7.108;2022-11-20T05:27:13;98994.06;;;2.45;62.63
22018;BME280;11173;51.050;7.108;2022-11-20T05:37:13;98987.72;;;2.41;62.38
22018;BME280;11173;51.050;7.108;2022-11-20T05:47:13;98980.63;;;2.36;62.70
22018;BME280;11173;51.050;7.108;2022-11-20T05:57:14;98985.34;;;2.36;62.92
22018;BME280;11173;51.050;7.108;2022-11-20T06:07:14;98994.06;;;2.45;63.03
22018;BME280;11173;51.050;7.108;2022-11-20T06:17:14;98987.03;;;2.51;63.01
22018;BME280;11173;51.050;7.108;2022-11-20T06:27:15;98988.63;;;2.56;62.87
22018;BME280;11173;51.050;7.108;2022-11-20T06:37:15;98982.34;;;2.55;63.00
22018;BME280;11173;51.050;7.108;2022-11-20T06:47:16;98988.91;;;2.40;61.71
22018;BME280;11173;51.050;7.108;2022-11-20T06:57:16;98998.19;;;1.80;61.14
22018;BME280;11173;51.050;7.108;2022-11-20T07:07:37;99004.47;;;1.13;62.34
22018;BME280;11173;51.050;7.108;2022-11-20T07:18:00;99014.06;;;0.69;63.53
22018;BME280;11173;51.050;7.108;2022-11-20T07:28:21;67552.56;;;-149.45;100.00
22018;BME280;11173;51.050;7.108;2022-11-20T07:38:42;67552.56;;;-149.45;100.00
22018;BME280;11173;51.050;7.108;2022-11-20T07:49:03;67552.56;;;-149.45;100.00
22018;BME280;11173;51.050;7.108;2022-11-20T07:59:23;99012.75;;;0.86;66.62
22018;BME280;11173;51.050;7.108;2022-11-20T08:09:44;99012.44;;;1.22;65.69
22018;BME280;11173;51.050;7.108;2022-11-20T08:20:04;98997.34;;;1.38;65.99
22018;BME280;11173;51.050;7.108;2022-11-20T08:30:25;99007.47;;;1.68;66.92
22018;BME280;11173;51.050;7.108;2022-11-20T08:40:46;99016.06;;;2.04;66.51
22018;BME280;11173;51.050;7.108;2022-11-20T08:51:26;99015.31;;;2.52;66.30
22018;BME280;11173;51.050;7.108;2022-11-20T09:01:47;99025.09;;;3.05;65.96
22018;BME280;11173;51.050;7.108;2022-11-20T09:12:08;99019.03;;;3.58;65.62
22018;BME280;11173;51.050;7.108;2022-11-20T09:22:28;99016.38;;;4.01;65.16
22018;BME280;11173;51.050;7.108;2022-11-20T09:32:49;99015.22;;;4.24;64.17
22018;BME280;11173;51.050;7.108;2022-11-20T10:04:09;98980.13;;;4.56;61.43
22018;BME280;11173;51.050;7.108;2022-11-20T10:25:14;98976.47;;;5.06;62.20
22018;BME280;11173;51.050;7.108;2022-11-20T10:35:38;98960.59;;;5.35;61.68
22018;BME280;11173;51.050;7.108;2022-11-20T10:46:03;98951.88;;;5.41;62.40
22018;BME280;11173;51.050;7.108;2022-11-20T11:06:52;98920.22;;;5.63;62.85
22018;BME280;11173;51.050;7.108;2022-11-20T11:27:45;98892.88;;;6.25;61.93
22018;BME280;11173;51.050;7.108;2022-11-20T11:38:07;98862.84;;;6.23;61.59
22018;BME280;11173;51.050;7.108;2022-11-20T11:48:32;98855.78;;;6.18;62.00
22018;BME280;11173;51.050;7.108;2022-11-20T11:58:52;98850.66;;;6.21;62.25
22018;BME280;11173;51.050;7.108;2022-11-20T12:09:15;98826.34;;;6.39;62.44
22018;BME280;11173;51.050;7.108;2022-11-20T12:19:38;98815.19;;;6.46;62.16
22018;BME280;11173;51.050;7.108;2022-11-20T12:30:01;98808.78;;;6.53;62.23
22018;BME280;11173;51.050;7.108;2022-11-20T13:01:24;98765.44;;;6.43;61.57
22018;BME280;11173;51.050;7.108;2022-11-20T13:12:09;98749.06;;;6.25;60.76
22018;BME280;11173;51.050;7.108;2022-11-20T13:22:53;98714.19;;;5.96;57.41
22018;BME280;11173;51.050;7.108;2022-11-20T13:54:43;98681.94;;;5.48;58.70
22018;BME280;11173;51.050;7.108;2022-11-20T14:05:15;98648.94;;;5.30;59.50
22018;BME280;11173;51.050;7.108;2022-11-20T14:15:38;98642.84;;;5.08;59.83
22018;BME280;11173;51.050;7.108;2022-11-20T14:26:00;98623.25;;;4.92;60.93
22018;BME280;11173;51.050;7.108;2022-11-20T14:36:22;98610.72;;;4.84;61.20
22018;BME280;11173;51.050;7.108;2022-11-20T14:46:43;98584.84;;;4.67;62.10
22018;BME280;11173;51.050;7.108;2022-11-20T14:57:04;98579.31;;;4.67;62.32
22018;BME280;11173;51.050;7.108;2022-11-20T15:07:26;98568.34;;;4.60;63.15
22018;BME280;11173;51.050;7.108;2022-11-20T15:17:50;98551.81;;;4.56;63.53
22018;BME280;11173;51.050;7.108;2022-11-20T15:28:13;98540.00;;;4.59;63.79
22018;BME280;11173;51.050;7.108;2022-11-20T15:38:36;98539.53;;;4.68;64.31
22018;BME280;11173;51.050;7.108;2022-11-20T15:48:57;98539.09;;;4.73;64.72
22018;BME280;11173;51.050;7.108;2022-11-20T15:59:17;98505.50;;;4.82;63.83
22018;BME280;11173;51.050;7.108;2022-11-20T16:09:38;98499.09;;;4.88;64.10
22018;BME280;11173;51.050;7.108;2022-11-20T16:19:58;98487.59;;;4.97;63.90
22018;BME280;11173;51.050;7.108;2022-11-20T16:30:19;98471.72;;;5.05;64.01
22018;BME280;11173;51.050;7.108;2022-11-20T16:40:39;98444.81;;;5.12;64.04
22018;BME280;11173;51.050;7.108;2022-11-20T16:51:00;98443.13;;;5.22;64.16
22018;BME280;11173;51.050;7.108;2022-11-20T17:01:21;98421.75;;;5.30;64.54
22018;BME280;11173;51.050;7.108;2022-11-20T17:11:42;98415.31;;;5.36;64.14
22018;BME280;11173;51.050;7.108;2022-11-20T17:22:03;98383.75;;;5.37;64.14
22018;BME280;11173;51.050;7.108;2022-11-20T17:32:23;98370.72;;;5.38;64.39
22018;BME280;11173;51.050;7.108;2022-11-20T17:42:44;98333.66;;;5.39;64.55
22018;BME280;11173;51.050;7.108;2022-11-20T17:53:04;98315.09;;;5.40;64.68
22018;BME280;11173;51.050;7.108;2022-11-20T18:03:26;98287.47;;;5.40;64.86
22018;BME280;11173;51.050;7.108;2022-11-20T18:13:48;98263.41;;;5.40;64.83
22018;BME280;11173;51.050;7.108;2022-11-20T18:24:27;98249.91;;;5.46;64.62
22018;BME280;11173;51.050;7.108;2022-11-20T18:34:48;98245.53;;;5.48;64.84
22018;BME280;11173;51.050;7.108;2022-11-20T18:45:09;98240.31;;;5.54;64.99
22018;BME280;11173;51.050;7.108;2022-11-20T18:55:30;98240.19;;;5.61;65.02
22018;BME280;11173;51.050;7.108;2022-11-20T19:05:50;98211.66;;;5.68;65.12
22018;BME280;11173;51.050;7.108;2022-11-20T19:16:18;98192.97;;;5.75;65.02
22018;BME280;11173;51.050;7.108;2022-11-20T19:26:39;98188.09;;;5.83;65.53
22018;BME280;11173;51.050;7.108;2022-11-20T19:36:59;98172.16;;;5.91;65.58
22018;BME280;11173;51.050;7.108;2022-11-20T19:47:20;98192.41;;;6.04;65.60
22018;BME280;11173;51.050;7.108;2022-11-20T19:57:41;98162.09;;;6.21;66.16
22018;BME280;11173;51.050;7.108;2022-11-20T20:08:01;98146.78;;;6.32;66.56
22018;BME280;11173;51.050;7.108;2022-11-20T20:18:22;98151.09;;;6.53;67.46
22018;BME280;11173;51.050;7.108;2022-11-20T20:28:42;98151.38;;;6.75;67.57
22018;BME280;11173;51.050;7.108;2022-11-20T20:39:03;98157.19;;;6.97;67.36
22018;BME280;11173;51.050;7.108;2022-11-20T20:49:23;98151.63;;;7.14;67.35
22018;BME280;11173;51.050;7.108;2022-11-20T20:59:44;98169.88;;;7.28;66.88
22018;BME280;11173;51.050;7.108;2022-11-20T21:10:05;98171.44;;;7.29;66.70
22018;BME280;11173;51.050;7.108;2022-11-20T21:20:25;98179.50;;;7.40;66.35
22018;BME280;11173;51.050;7.108;2022-11-20T21:31:12;98190.03;;;7.28;66.65
22018;BME280;11173;51.050;7.108;2022-11-20T21:41:35;98193.59;;;7.29;66.70
22018;BME280;11173;51.050;7.108;2022-11-20T21:51:55;98189.63;;;7.30;66.24
22018;BME280;11173;51.050;7.108;2022-11-20T22:02:16;98204.16;;;7.17;66.19
22018;BME280;11173;51.050;7.108;2022-11-20T22:12:37;98213.69;;;7.16;66.14
22018;BME280;11173;51.050;7.108;2022-11-20T22:22:57;98184.84;;;7.14;66.13
22018;BME280;11173;51.050;7.108;2022-11-20T22:33:20;98223.47;;;7.05;66.45
22018;BME280;11173;51.050;7.108;2022-11-20T22:43:41;98246.53;;;6.98;66.64
22018;BME280;11173;51.050;7.108;2022-11-20T22:54:02;98250.69;;;6.90;66.99
22018;BME280;11173;51.050;7.108;2022-11-20T23:04:23;98222.91;;;6.93;66.83
22018;BME280;11173;51.050;7.108;2022-11-20T23:14:43;98251.72;;;6.96;66.63
22018;BME280;11173;51.050;7.108;2022-11-20T23:25:04;98268.25;;;6.83;66.77
22018;BME280;11173;51.050;7.108;2022-11-20T23:35:25;98258.59;;;6.71;67.14
22018;BME280;11173;51.050;7.108;2022-11-20T23:45:46;98266.56;;;6.69;67.21
22018;BME280;11173;51.050;7.108;2022-11-20T23:56:07;98264.38;;;6.61;67.71
